HB9FEE-13 Weather Reports


Display with metric or nautical units.
time (UTC)temp
F
wind
direction
speed
MPH
gust
MPH
rain 1hr
in
rain 24hr
in
rain mn
in
humidity
%
barometer
mb
20191016074746 47 135 0.0 5.0 0.00 1.25 0.00 87 1017.8
20191016073746 47 90 0.0 5.0 0.00 1.25 0.00 87 1018.1
20191016072745 47 338 0.0 5.0 0.00 1.25 0.00 87 1018.1
20191016071746 47 248 0.0 5.0 0.00 1.25 0.00 87 1017.8
20191016070746 47 248 0.0 5.0 0.00 1.25 0.00 87 1017.8
20191016065747 47 315 0.0 5.0 0.00 1.25 0.00 86 1017.6
20191016064745 46 251 0.0 5.0 0.00 1.25 0.00 86 1017.6
20191016063747 47 270 0.0 5.0 0.00 1.25 0.00 86 1017.6
20191016062746 47 315 0.0 5.0 0.00 1.25 0.00 86 1017.6
20191016061747 46 315 1.0 5.0 0.00 1.25 0.00 87 1017.8
20191016060747 47 315 0.0 5.0 0.00 1.25 0.00 86 1017.8
20191016055747 47 292 0.0 5.0 0.00 1.25 0.00 87 1017.5
20191016054746 47 0 0.0 5.0 0.00 1.25 0.00 87 1017.5
20191016053747 47 22 0.0 5.0 0.00 1.25 0.00 87 1017.5
20191016052747 47 90 0.0 5.0 0.00 1.25 0.00 87 1017.5
20191016051746 47 297 0.0 5.0 0.00 1.25 0.00 87 1017.8
20191016050747 47 338 1.0 5.0 0.00 1.25 0.00 87 1017.8
20191016045746 47 270 0.0 5.0 0.00 1.25 0.00 86 1017.7
20191016044747 47 225 0.0 5.0 0.00 1.25 0.00 86 1017.7
20191016043747 48 270 0.0 5.0 0.00 1.25 0.00 86 1017.6
20191016042747 48 338 0.0 5.0 0.00 1.25 0.00 86 1017.6
20191016041747 48 315 1.0 5.0 0.00 1.25 0.00 86 1017.6
20191016040747 48 292 0.0 5.0 0.00 1.25 0.00 86 1017.6
20191016035746 48 270 0.0 5.0 0.00 1.25 0.00 86 1017.3
20191016034746 48 315 0.0 5.0 0.00 1.25 0.00 86 1017.3
20191016033747 48 286 0.0 5.0 0.00 1.25 0.00 86 1017.3
20191016032749 48 202 0.0 5.0 0.00 1.25 0.00 86 1017.3
20191016031746 48 338 0.0 5.0 0.00 1.25 0.00 85 1017.1
20191016030747 48 225 0.0 5.0 0.00 1.25 0.00 85 1017.1
20191016025747 48 68 0.0 5.0 0.00 1.25 0.00 85 1017.1
20191016024746 49 249 0.0 5.0 0.00 1.25 0.00 85 1017.1
20191016023747 49 292 0.0 5.0 0.00 1.25 0.00 85 1017.3
20191016022746 49 292 0.0 5.0 0.00 1.25 0.00 85 1017.3
20191016021746 49 273 0.0 5.0 0.00 1.25 0.00 84 1017.2
20191016020748 49 135 0.0 5.0 0.00 1.25 0.00 85 1017.2
20191016015748 50 135 0.0 5.0 0.00 1.25 0.00 84 1017.3
20191016014747 50 135 0.0 5.0 0.00 1.25 0.00 84 1017.3
20191016013747 50 0 0.0 5.0 0.00 1.25 0.00 83 1017.2
20191016012747 50 0 0.0 5.0 0.00 1.25 0.00 83 1017.2
20191016011746 50 270 0.0 5.0 0.00 1.25 0.00 83 1017.3
20191016010748 50 338 0.0 5.0 0.00 1.25 0.00 82 1017.3
20191016005747 51 270 0.0 5.0 0.00 1.25 0.00 81 1017.3
20191016004747 51 338 0.0 5.0 0.00 1.25 0.00 81 1017.3
20191016003748 51 135 1.0 5.0 0.00 1.25 0.00 81 1017.4
20191016002748 51 315 0.0 5.0 0.00 1.25 0.00 82 1017.4
20191016001747 51 158 1.0 5.0 0.00 1.25 0.00 81 1017.5
20191016000748 51 45 0.0 5.0 0.00 1.25 0.00 82 1017.4
20191015235746 51 338 1.0 5.0 0.00 1.25 0.00 83 1017.1
20191015234748 51 337 1.0 5.0 0.00 1.25 0.00 83 1017.1
20191015233748 51 315 1.0 5.0 0.00 1.25 0.00 82 1017.0
20191015232746 51 315 1.0 5.0 0.00 1.25 0.00 83 1017.0
20191015231747 51 341 1.0 5.0 0.00 1.25 0.00 83 1016.7
20191015230748 51 338 1.0 5.0 0.00 1.25 0.00 84 1016.7
20191015225748 51 292 0.0 5.0 0.00 1.25 0.00 84 1016.4
20191015224748 51 282 0.0 5.0 0.00 1.25 0.00 85 1016.4
20191015223747 51 270 1.0 5.0 0.00 1.25 0.00 84 1016.3
20191015222747 51 338 1.0 5.0 0.00 1.25 0.00 84 1016.3
20191015221748 51 338 0.0 3.0 0.00 1.25 0.00 84 1016.3
20191015220747 51 270 0.0 0.0 0.00 1.25 0.00 84 1016.3
20191015215749 51 315 1.0 9.0 0.06 1.25 1.25 84 1016.4
20191015214748 51 292 0.0 9.0 0.06 1.25 1.25 84 1016.4
20191015213747 51 0 0.0 9.0 0.06 1.22 1.22 84 1016.0
20191015212747 51 338 1.0 9.0 0.08 1.22 1.22 84 1016.0
20191015211747 51 338 1.0 9.0 0.11 1.22 1.22 84 1015.9
20191015210748 52 338 2.0 9.0 0.11 1.22 1.22 83 1015.9
20191015205748 52 270 2.0 9.0 0.11 1.19 1.19 83 1015.7
20191015204747 52 315 2.0 9.0 0.11 1.19 1.19 84 1015.7
20191015203748 52 338 2.0 9.0 0.11 1.17 1.17 85 1016.1
20191015202748 51 0 1.0 9.0 0.08 1.14 1.14 84 1016.1
20191015201747 51 22 1.0 9.0 0.09 1.11 1.11 83 1015.8
20191015200748 51 45 2.0 9.0 0.09 1.11 1.11 82 1015.8
20191015195747 51 68 3.0 9.0 0.09 1.08 1.08 81 1015.2
20191015193747 52 112 3.0 9.0 0.09 1.06 1.06 83 1014.9
20191015192748 52 338 3.0 9.0 0.11 1.06 1.06 82 1014.9
20191015191749 52 22 3.0 7.0 0.08 1.02 1.02 83 1014.5
20191015190748 52 68 2.0 7.0 0.08 1.02 1.02 84 1014.5
20191015185747 53 22 2.0 7.0 0.06 1.00 1.00 84 1014.6
20191015183747 53 315 2.0 7.0 0.06 0.97 0.97 85 1014.4
20191015182748 53 338 2.0 7.0 0.03 0.94 0.94 84 1014.4
20191015181748 53 338 1.0 7.0 0.03 0.94 0.94 85 1014.0
20191015180748 53 22 1.0 7.0 0.06 0.94 0.94 85 1014.0
20191015175747 54 338 1.0 7.0 0.08 0.94 0.94 84 1013.8
20191015174747 54 338 2.0 7.0 0.11 0.94 0.94 84 1013.8
20191015173747 54 45 2.0 7.0 0.11 0.91 0.91 84 1013.4
20191015172748 54 0 5.0 7.0 0.11 0.91 0.91 84 1013.4
20191015170747 55 158 1.0 5.0 0.14 0.89 0.89 86 1012.6
20191015165748 56 158 0.0 5.0 0.14 0.86 0.86 85 1011.8
20191015164747 56 45 0.0 5.0 0.14 0.83 0.83 86 1011.8
20191015163749 56 112 0.0 5.0 0.14 0.80 0.80 86 1011.3
20191015162748 56 315 0.0 5.0 0.17 0.80 0.80 86 1011.3
20191015161748 56 225 0.0 5.0 0.14 0.78 0.78 86 1011.3
20191015160747 56 292 0.0 5.0 0.14 0.75 0.75 86 1011.3
20191015155747 56 270 0.0 5.0 0.19 0.72 0.72 85 1010.9
20191015154747 56 225 0.0 5.0 0.30 0.69 0.69 86 1010.9
20191015153748 56 270 0.0 5.0 0.36 0.67 0.67 86 1010.3
20191015152748 56 225 0.0 5.0 0.41 0.64 0.64 85 1010.3
20191015151749 56 225 0.0 5.0 0.44 0.64 0.64 85 1010.2
20191015150749 57 158 0.0 5.0 0.44 0.61 0.61 86 1010.2
20191015145749 57 158 0.0 5.0 0.42 0.53 0.53 85 1010.1
20191015144748 57 248 0.0 5.0 0.31 0.39 0.39 85 1010.1
20191015143747 57 270 0.0 5.0 0.25 0.31 0.31 85 1010.5
20191015142749 57 270 0.0 5.0 0.20 0.22 0.22 83 1010.5
20191015141749 58 315 0.0 5.0 0.20 0.20 0.20 83 1010.1
20191015140747 58 0 0.0 5.0 0.17 0.17 0.17 82 1010.1
20191015135747 58 22 0.0 5.0 0.11 0.11 0.11 82 1010.2
20191015134747 58 158 0.0 5.0 0.08 0.08 0.08 81 1010.2
20191015133749 59 45 0.0 5.0 0.06 0.06 0.06 81 1009.9
20191015132748 59 135 1.0 5.0 0.03 0.03 0.03 80 1009.9
20191015131749 60 135 0.0 5.0 0.00 0.00 0.00 80 1009.4
20191015130749 60 68 1.0 5.0 0.00 0.00 0.00 79 1009.4
20191015125748 60 22 1.0 5.0 0.00 0.00 0.00 79 1009.6
20191015124748 61 0 1.0 5.0 0.00 0.00 0.00 78 1009.6
20191015123750 61 112 1.0 5.0 0.00 0.00 0.00 77 1009.6
20191015122748 61 158 1.0 5.0 0.00 0.00 0.00 77 1009.6
20191015121748 62 248 0.0 5.0 0.00 0.00 0.00 76 1009.4
20191015120748 62 270 0.0 5.0 0.00 0.00 0.00 76 1009.4
20191015115748 62 158 0.0 5.0 0.00 0.00 0.00 76 1009.5
20191015114751 62 158 1.0 5.0 0.00 0.00 0.00 76 1009.5
20191015113748 63 202 0.0 5.0 0.00 0.00 0.00 76 1009.6
20191015112747 63 202 0.0 5.0 0.00 0.00 0.00 76 1009.6
20191015111747 63 270 0.0 5.0 0.00 0.00 0.00 76 1009.7
20191015110748 64 202 1.0 5.0 0.00 0.00 0.00 75 1009.7
20191015105748 64 338 0.0 5.0 0.00 0.00 0.00 74 1009.8
20191015104749 64 158 0.0 5.0 0.00 0.00 0.00 74 1009.8
20191015103748 64 338 0.0 5.0 0.00 0.00 0.00 76 1009.8
20191015102747 63 135 0.0 5.0 0.00 0.00 0.00 77 1009.8
20191015101748 63 338 0.0 5.0 0.00 0.00 0.00 78 1009.8
20191015100749 62 338 0.0 5.0 0.00 0.00 0.00 81 1009.8
20191015095748 61 338 0.0 5.0 0.00 0.00 0.00 83 1009.7
20191015094748 61 158 0.0 5.0 0.00 0.00 0.00 85 1009.7
20191015094304 60 269 0.0 5.0 0.00 0.00 0.00 86 1009.4
20191015093305 58 104 0.0 5.0 0.00 0.00 0.00 88 1009.4
20191015092306 56 128 0.0 5.0 0.00 0.00 0.00 88 1009.4
20191015091304 56 141 0.0 5.0 0.00 0.00 0.00 88 1009.4
20191015090305 54 113 0.0 5.0 0.00 0.00 0.00 88 1009.2
20191015085305 54 51 0.0 5.0 0.00 0.00 0.00 88 1009.2
20191015084303 54 82 1.0 5.0 0.00 0.00 0.00 88 1009.1
20191015083305 54 45 0.0 5.0 0.00 0.00 0.00 88 1009.1
20191015082305 54 101 1.0 5.0 0.00 0.00 0.00 87 1008.5
20191015081305 54 295 1.0 5.0 0.00 0.00 0.00 87 1008.5
20191015080305 54 318 0.0 5.0 0.00 0.00 0.00 88 1008.4